sensor_id;sensor_type;location;lat;lon;timestamp;pressure;altitude;pressure_sealevel;temperature;humidity
78149;BME280;67396;42.664;23.382;2023-11-19T00:01:08;94915.59;;;2.65;70.87
78149;BME280;67396;42.664;23.382;2023-11-19T00:03:33;94921.16;;;2.69;70.79
78149;BME280;67396;42.664;23.382;2023-11-19T00:06:00;94920.34;;;2.68;71.15
78149;BME280;67396;42.664;23.382;2023-11-19T00:08:26;94921.81;;;2.65;71.82
78149;BME280;67396;42.664;23.382;2023-11-19T00:10:52;94913.25;;;2.63;71.36
78149;BME280;67396;42.664;23.382;2023-11-19T00:13:17;94915.50;;;2.74;71.42
78149;BME280;67396;42.664;23.382;2023-11-19T00:15:43;94923.41;;;2.67;71.14
78149;BME280;67396;42.664;23.382;2023-11-19T00:18:10;94908.47;;;2.60;71.82
78149;BME280;67396;42.664;23.382;2023-11-19T00:20:36;94920.44;;;2.59;71.13
78149;BME280;67396;42.664;23.382;2023-11-19T00:23:01;94926.66;;;2.60;70.88
78149;BME280;67396;42.664;23.382;2023-11-19T00:25:27;94920.91;;;2.61;71.01
78149;BME280;67396;42.664;23.382;2023-11-19T00:27:53;94927.78;;;2.59;70.93
78149;BME280;67396;42.664;23.382;2023-11-19T00:30:19;94924.28;;;2.58;71.03
78149;BME280;67396;42.664;23.382;2023-11-19T00:32:44;94926.53;;;2.56;71.14
78149;BME280;67396;42.664;23.382;2023-11-19T00:35:10;94931.63;;;2.58;70.79
78149;BME280;67396;42.664;23.382;2023-11-19T00:37:36;94926.19;;;2.58;70.82
78149;BME280;67396;42.664;23.382;2023-11-19T00:40:02;94923.16;;;2.59;71.22
78149;BME280;67396;42.664;23.382;2023-11-19T00:42:30;94930.03;;;2.57;70.81
78149;BME280;67396;42.664;23.382;2023-11-19T00:44:56;94926.53;;;2.56;70.92
78149;BME280;67396;42.664;23.382;2023-11-19T00:47:21;94936.13;;;2.54;71.24
78149;BME280;67396;42.664;23.382;2023-11-19T00:49:47;94931.50;;;2.54;70.85
78149;BME280;67396;42.664;23.382;2023-11-19T00:52:16;94933.06;;;2.55;71.27
78149;BME280;67396;42.664;23.382;2023-11-19T00:54:42;94931.84;;;2.53;71.25
78149;BME280;67396;42.664;23.382;2023-11-19T00:57:08;94923.56;;;2.49;71.01
78149;BME280;67396;42.664;23.382;2023-11-19T00:59:33;94926.19;;;2.58;70.58
78149;BME280;67396;42.664;23.382;2023-11-19T01:01:59;94924.28;;;2.58;70.78
78149;BME280;67396;42.664;23.382;2023-11-19T01:04:35;94941.19;;;2.55;71.34
78149;BME280;67396;42.664;23.382;2023-11-19T01:07:04;94935.19;;;2.50;71.24
78149;BME280;67396;42.664;23.382;2023-11-19T01:09:31;94931.50;;;2.54;71.61
78149;BME280;67396;42.664;23.382;2023-11-19T01:12:03;94939.28;;;2.56;72.05
78149;BME280;67396;42.664;23.382;2023-11-19T01:14:29;94942.34;;;2.54;71.58
78149;BME280;67396;42.664;23.382;2023-11-19T01:16:54;94939.81;;;2.49;71.03
78149;BME280;67396;42.664;23.382;2023-11-19T01:19:23;94936.69;;;2.59;71.57
78149;BME280;67396;42.664;23.382;2023-11-19T01:21:50;94945.84;;;2.55;71.37
78149;BME280;67396;42.664;23.382;2023-11-19T01:24:15;94934.53;;;2.53;71.38
78149;BME280;67396;42.664;23.382;2023-11-19T01:26:41;94929.91;;;2.53;71.22
78149;BME280;67396;42.664;23.382;2023-11-19T01:29:15;94934.31;;;2.58;71.36
78149;BME280;67396;42.664;23.382;2023-11-19T01:31:45;94932.97;;;2.52;71.63
78149;BME280;67396;42.664;23.382;2023-11-19T01:34:12;94929.00;;;2.49;71.29
78149;BME280;67396;42.664;23.382;2023-11-19T01:36:38;94944.44;;;2.49;71.71
78149;BME280;67396;42.664;23.382;2023-11-19T01:39:04;94945.25;;;2.49;71.02
78149;BME280;67396;42.664;23.382;2023-11-19T01:41:34;94952.03;;;2.55;70.73
78149;BME280;67396;42.664;23.382;2023-11-19T01:44:00;94936.13;;;2.54;70.98
78149;BME280;67396;42.664;23.382;2023-11-19T01:46:26;94939.50;;;2.51;70.82
78149;BME280;67396;42.664;23.382;2023-11-19T01:48:52;94937.13;;;2.49;70.28
78149;BME280;67396;42.664;23.382;2023-11-19T01:51:19;94950.19;;;2.47;70.17
78149;BME280;67396;42.664;23.382;2023-11-19T01:53:46;94944.34;;;2.45;70.80
78149;BME280;67396;42.664;23.382;2023-11-19T01:56:13;94940.06;;;2.44;70.17
78149;BME280;67396;42.664;23.382;2023-11-19T01:58:40;94951.41;;;2.38;69.93
78149;BME280;67396;42.664;23.382;2023-11-19T02:01:06;94952.41;;;2.33;70.65
78149;BME280;67396;42.664;23.382;2023-11-19T02:03:33;94946.06;;;2.29;70.75
78149;BME280;67396;42.664;23.382;2023-11-19T02:05:59;94956.00;;;2.25;70.52
78149;BME280;67396;42.664;23.382;2023-11-19T02:08:25;94944.69;;;2.23;70.49
78149;BME280;67396;42.664;23.382;2023-11-19T02:10:51;94944.03;;;2.26;70.68
78149;BME280;67396;42.664;23.382;2023-11-19T02:13:18;94928.44;;;2.23;70.46
78149;BME280;67396;42.664;23.382;2023-11-19T02:15:44;94935.66;;;2.19;69.72
78149;BME280;67396;42.664;23.382;2023-11-19T02:20:44;94943.00;;;2.18;69.55
78149;BME280;67396;42.664;23.382;2023-11-19T02:23:11;94953.63;;;2.23;69.95
78149;BME280;67396;42.664;23.382;2023-11-19T02:25:37;94950.56;;;2.25;69.52
78149;BME280;67396;42.664;23.382;2023-11-19T02:28:04;94946.06;;;2.29;69.25
78149;BME280;67396;42.664;23.382;2023-11-19T02:30:30;94952.56;;;2.37;68.91
78149;BME280;67396;42.664;23.382;2023-11-19T02:33:00;94958.31;;;2.47;69.21
78149;BME280;67396;42.664;23.382;2023-11-19T02:35:31;94958.22;;;2.44;68.83
78149;BME280;67396;42.664;23.382;2023-11-19T02:37:58;94946.59;;;2.43;69.26
78149;BME280;67396;42.664;23.382;2023-11-19T02:40:26;94926.94;;;2.46;68.46
78149;BME280;67396;42.664;23.382;2023-11-19T02:42:53;94931.03;;;2.52;68.43
78149;BME280;67396;42.664;23.382;2023-11-19T02:45:19;94933.75;;;2.52;67.65
78149;BME280;67396;42.664;23.382;2023-11-19T02:47:45;94924.22;;;2.46;68.66
78149;BME280;67396;42.664;23.382;2023-11-19T02:50:11;94926.75;;;2.51;67.92
78149;BME280;67396;42.664;23.382;2023-11-19T02:52:43;94943.41;;;2.41;68.82
78149;BME280;67396;42.664;23.382;2023-11-19T02:55:10;94947.63;;;2.51;68.08
78149;BME280;67396;42.664;23.382;2023-11-19T02:57:41;94946.84;;;2.50;68.05
78149;BME280;67396;42.664;23.382;2023-11-19T03:00:17;94934.53;;;2.53;67.88
78149;BME280;67396;42.664;23.382;2023-11-19T03:02:46;94934.41;;;2.49;68.19
78149;BME280;67396;42.664;23.382;2023-11-19T03:05:15;94945.66;;;2.39;68.85
78149;BME280;67396;42.664;23.382;2023-11-19T03:07:44;94945.31;;;2.29;69.44
78149;BME280;67396;42.664;23.382;2023-11-19T03:10:10;94948.06;;;2.20;69.78
78149;BME280;67396;42.664;23.382;2023-11-19T03:12:40;94936.81;;;2.30;69.09
78149;BME280;67396;42.664;23.382;2023-11-19T03:15:06;94935.66;;;2.19;69.90
78149;BME280;67396;42.664;23.382;2023-11-19T03:17:32;94953.06;;;2.30;69.26
78149;BME280;67396;42.664;23.382;2023-11-19T03:19:58;94951.22;;;2.22;69.10
78149;BME280;67396;42.664;23.382;2023-11-19T03:22:23;94949.78;;;2.24;68.95
78149;BME280;67396;42.664;23.382;2023-11-19T03:24:50;94948.66;;;2.25;69.52
78149;BME280;67396;42.664;23.382;2023-11-19T03:27:16;94960.91;;;2.11;70.04
78149;BME280;67396;42.664;23.382;2023-11-19T03:29:41;94954.00;;;2.13;70.24
78149;BME280;67396;42.664;23.382;2023-11-19T03:32:07;94953.38;;;2.16;70.00
78149;BME280;67396;42.664;23.382;2023-11-19T03:34:32;94956.88;;;2.17;69.90
78149;BME280;67396;42.664;23.382;2023-11-19T03:36:58;94955.28;;;2.16;69.86
78149;BME280;67396;42.664;23.382;2023-11-19T03:39:24;94958.22;;;2.23;69.80
78149;BME280;67396;42.664;23.382;2023-11-19T03:41:50;94955.78;;;2.30;69.71
78149;BME280;67396;42.664;23.382;2023-11-19T03:44:16;94964.31;;;2.20;69.62
78149;BME280;67396;42.664;23.382;2023-11-19T03:46:42;94965.03;;;2.29;69.41
78149;BME280;67396;42.664;23.382;2023-11-19T03:49:07;94965.31;;;2.36;69.97
78149;BME280;67396;42.664;23.382;2023-11-19T03:51:33;94982.59;;;2.23;70.65
78149;BME280;67396;42.664;23.382;2023-11-19T03:54:00;94986.09;;;2.23;70.84
78149;BME280;67396;42.664;23.382;2023-11-19T03:56:26;94983.06;;;2.25;69.48
78149;BME280;67396;42.664;23.382;2023-11-19T03:58:52;94977.50;;;2.21;70.07
78149;BME280;67396;42.664;23.382;2023-11-19T04:01:18;94980.13;;;2.18;70.27
78149;BME280;67396;42.664;23.382;2023-11-19T04:03:43;94975.34;;;2.15;69.90
78149;BME280;67396;42.664;23.382;2023-11-19T04:06:09;94977.16;;;2.11;70.47
78149;BME280;67396;42.664;23.382;2023-11-19T04:08:34;94982.56;;;2.11;70.08
78149;BME280;67396;42.664;23.382;2023-11-19T04:11:02;94990.31;;;2.12;70.04
78149;BME280;67396;42.664;23.382;2023-11-19T04:13:28;94983.31;;;2.11;70.02
78149;BME280;67396;42.664;23.382;2023-11-19T04:15:53;94987.50;;;2.09;70.01
78149;BME280;67396;42.664;23.382;2023-11-19T04:18:18;94995.00;;;2.03;70.13
78149;BME280;67396;42.664;23.382;2023-11-19T04:20:44;94993.09;;;2.04;70.62
78149;BME280;67396;42.664;23.382;2023-11-19T04:23:09;94985.19;;;1.99;70.92
78149;BME280;67396;42.664;23.382;2023-11-19T04:25:35;94985.84;;;1.96;70.42
78149;BME280;67396;42.664;23.382;2023-11-19T04:28:01;94983.06;;;2.04;70.72
78149;BME280;67396;42.664;23.382;2023-11-19T04:30:28;94998.72;;;1.99;70.44
78149;BME280;67396;42.664;23.382;2023-11-19T04:32:53;94992.44;;;2.07;70.29
78149;BME280;67396;42.664;23.382;2023-11-19T04:35:19;95003.28;;;2.07;70.64
78149;BME280;67396;42.664;23.382;2023-11-19T04:37:44;95006.31;;;2.05;70.04
78149;BME280;67396;42.664;23.382;2023-11-19T04:40:10;94998.50;;;2.04;70.06
78149;BME280;67396;42.664;23.382;2023-11-19T04:42:37;94995.47;;;2.05;70.01
78149;BME280;67396;42.664;23.382;2023-11-19T04:45:06;94998.25;;;1.97;69.82
78149;BME280;67396;42.664;23.382;2023-11-19T04:47:33;95004.66;;;1.92;70.57
78149;BME280;67396;42.664;23.382;2023-11-19T04:49:59;95001.59;;;1.94;70.01
78149;BME280;67396;42.664;23.382;2023-11-19T04:52:25;95001.28;;;1.95;70.26
78149;BME280;67396;42.664;23.382;2023-11-19T04:54:50;94994.16;;;1.91;70.39
78149;BME280;67396;42.664;23.382;2023-11-19T04:57:16;94996.41;;;1.88;70.68
78149;BME280;67396;42.664;23.382;2023-11-19T04:59:42;95001.59;;;1.94;70.11
78149;BME280;67396;42.664;23.382;2023-11-19T05:02:17;94998.13;;;1.93;70.40
78149;BME280;67396;42.664;23.382;2023-11-19T05:05:05;95005.78;;;1.91;70.41
78149;BME280;67396;42.664;23.382;2023-11-19T05:07:37;95014.69;;;1.92;70.22
78149;BME280;67396;42.664;23.382;2023-11-19T05:13:07;95039.06;;;1.92;70.29
78149;BME280;67396;42.664;23.382;2023-11-19T05:15:34;95034.00;;;2.11;69.27
78149;BME280;67396;42.664;23.382;2023-11-19T05:17:59;95035.16;;;2.22;68.51
78149;BME280;67396;42.664;23.382;2023-11-19T05:20:24;95025.19;;;2.14;68.78
78149;BME280;67396;42.664;23.382;2023-11-19T05:22:50;95045.28;;;2.13;68.86
78149;BME280;67396;42.664;23.382;2023-11-19T05:25:16;95029.28;;;2.20;69.29
78149;BME280;67396;42.664;23.382;2023-11-19T05:27:42;95027.91;;;2.14;68.88
78149;BME280;67396;42.664;23.382;2023-11-19T05:30:07;95033.53;;;2.09;69.06
78149;BME280;67396;42.664;23.382;2023-11-19T05:32:33;95025.88;;;2.11;68.96
78149;BME280;67396;42.664;23.382;2023-11-19T05:34:59;95033.06;;;2.07;68.93
78149;BME280;67396;42.664;23.382;2023-11-19T05:37:24;95030.38;;;2.28;73.31
78149;BME280;67396;42.664;23.382;2023-11-19T05:39:51;95030.88;;;2.62;72.61
78149;BME280;67396;42.664;23.382;2023-11-19T05:42:16;95033.78;;;2.57;67.90
78149;BME280;67396;42.664;23.382;2023-11-19T05:44:42;95031.28;;;2.32;68.04
78149;BME280;67396;42.664;23.382;2023-11-19T05:47:08;95034.59;;;2.16;68.82
78149;BME280;67396;42.664;23.382;2023-11-19T05:49:33;95029.81;;;2.13;68.39
78149;BME280;67396;42.664;23.382;2023-11-19T05:51:59;95032.22;;;2.15;68.98
78149;BME280;67396;42.664;23.382;2023-11-19T05:54:24;95025.59;;;2.04;69.37
78149;BME280;67396;42.664;23.382;2023-11-19T05:56:50;95020.97;;;2.04;69.08
78149;BME280;67396;42.664;23.382;2023-11-19T05:59:19;95031.22;;;1.99;69.37
78149;BME280;67396;42.664;23.382;2023-11-19T06:01:44;95030.72;;;1.97;69.27
78149;BME280;67396;42.664;23.382;2023-11-19T06:04:10;95029.41;;;2.03;69.13
78149;BME280;67396;42.664;23.382;2023-11-19T06:06:36;95051.75;;;2.00;69.54
78149;BME280;67396;42.664;23.382;2023-11-19T06:09:02;95054.50;;;1.91;69.73
78149;BME280;67396;42.664;23.382;2023-11-19T06:11:30;95068.50;;;1.93;70.05
78149;BME280;67396;42.664;23.382;2023-11-19T06:13:56;95065.44;;;1.95;70.30
78149;BME280;67396;42.664;23.382;2023-11-19T06:16:22;95063.69;;;1.99;69.86
78149;BME280;67396;42.664;23.382;2023-11-19T06:18:48;95057.00;;;1.96;70.42
78149;BME280;67396;42.664;23.382;2023-11-19T06:21:13;95042.19;;;1.94;69.52
78149;BME280;67396;42.664;23.382;2023-11-19T06:23:39;95050.78;;;1.96;69.80
78149;BME280;67396;42.664;23.382;2023-11-19T06:26:05;95045.38;;;1.96;69.30
78149;BME280;67396;42.664;23.382;2023-11-19T06:28:31;95059.97;;;2.03;69.48
78149;BME280;67396;42.664;23.382;2023-11-19T06:30:57;95060.34;;;2.02;69.81
78149;BME280;67396;42.664;23.382;2023-11-19T06:33:24;95067.97;;;2.00;69.39
78149;BME280;67396;42.664;23.382;2023-11-19T06:35:49;95055.72;;;2.02;69.94
78149;BME280;67396;42.664;23.382;2023-11-19T06:38:15;95060.34;;;2.02;69.73
78149;BME280;67396;42.664;23.382;2023-11-19T06:40:40;95062.69;;;2.03;70.88
78149;BME280;67396;42.664;23.382;2023-11-19T06:43:06;95067.22;;;2.41;71.35
78149;BME280;67396;42.664;23.382;2023-11-19T06:45:33;95063.41;;;2.42;69.85
78149;BME280;67396;42.664;23.382;2023-11-19T06:48:01;95066.16;;;2.33;68.69
78149;BME280;67396;42.664;23.382;2023-11-19T06:50:28;95062.50;;;2.29;68.74
78149;BME280;67396;42.664;23.382;2023-11-19T06:52:54;95064.69;;;2.15;68.59
78149;BME280;67396;42.664;23.382;2023-11-19T06:55:19;95055.19;;;2.09;68.79
78149;BME280;67396;42.664;23.382;2023-11-19T06:57:44;95053.66;;;1.99;69.17
78149;BME280;67396;42.664;23.382;2023-11-19T07:00:10;95069.28;;;1.94;68.91
78149;BME280;67396;42.664;23.382;2023-11-19T07:02:36;95074.41;;;1.86;68.89
78149;BME280;67396;42.664;23.382;2023-11-19T07:05:02;95077.31;;;1.81;69.05
78149;BME280;67396;42.664;23.382;2023-11-19T07:07:30;95079.53;;;1.79;69.31
78149;BME280;67396;42.664;23.382;2023-11-19T07:09:56;95076.19;;;1.82;69.44
78149;BME280;67396;42.664;23.382;2023-11-19T07:12:22;95078.53;;;1.93;69.11
78149;BME280;67396;42.664;23.382;2023-11-19T07:14:47;95079.44;;;1.97;68.56
78149;BME280;67396;42.664;23.382;2023-11-19T07:17:13;95078.19;;;1.94;68.06
78149;BME280;67396;42.664;23.382;2023-11-19T07:19:38;95093.00;;;1.97;68.67
78149;BME280;67396;42.664;23.382;2023-11-19T07:22:04;95098.22;;;2.02;68.37
78149;BME280;67396;42.664;23.382;2023-11-19T07:24:31;95098.34;;;2.05;68.29
78149;BME280;67396;42.664;23.382;2023-11-19T07:26:57;95105.03;;;2.08;67.91
78149;BME280;67396;42.664;23.382;2023-11-19T07:29:22;95109.81;;;2.11;67.56
78149;BME280;67396;42.664;23.382;2023-11-19T07:31:51;95106.94;;;2.07;67.79
78149;BME280;67396;42.664;23.382;2023-11-19T07:34:17;95129.25;;;2.04;67.64
78149;BME280;67396;42.664;23.382;2023-11-19T07:36:42;95134.19;;;2.11;67.46
78149;BME280;67396;42.664;23.382;2023-11-19T07:39:07;95138.91;;;2.14;67.96
78149;BME280;67396;42.664;23.382;2023-11-19T07:41:33;95128.66;;;2.28;67.54
78149;BME280;67396;42.664;23.382;2023-11-19T07:44:00;95130.22;;;2.29;67.20
78149;BME280;67396;42.664;23.382;2023-11-19T07:46:26;95138.81;;;2.31;67.10
78149;BME280;67396;42.664;23.382;2023-11-19T07:48:52;95136.25;;;2.35;66.42
78149;BME280;67396;42.664;23.382;2023-11-19T07:51:18;95125.22;;;2.19;66.48
78149;BME280;67396;42.664;23.382;2023-11-19T07:53:44;95133.34;;;2.19;67.13
78149;BME280;67396;42.664;23.382;2023-11-19T07:56:10;95129.16;;;2.21;66.35
78149;BME280;67396;42.664;23.382;2023-11-19T07:58:36;95133.78;;;2.21;67.25
78149;BME280;67396;42.664;23.382;2023-11-19T08:01:04;95133.94;;;2.24;67.20
78149;BME280;67396;42.664;23.382;2023-11-19T08:03:30;95126.59;;;2.25;67.64
78149;BME280;67396;42.664;23.382;2023-11-19T08:06:00;95140.50;;;2.15;67.45
78149;BME280;67396;42.664;23.382;2023-11-19T08:08:27;95137.38;;;2.04;66.37
78149;BME280;67396;42.664;23.382;2023-11-19T08:10:54;95149.19;;;2.00;67.15
78149;BME280;67396;42.664;23.382;2023-11-19T08:13:23;95132.75;;;2.05;67.44
78149;BME280;67396;42.664;23.382;2023-11-19T08:15:48;95140.50;;;2.15;67.54
78149;BME280;67396;42.664;23.382;2023-11-19T08:18:14;95148.69;;;2.36;67.24
78149;BME280;67396;42.664;23.382;2023-11-19T08:20:40;95139.88;;;2.39;66.59
78149;BME280;67396;42.664;23.382;2023-11-19T08:23:07;95149.28;;;2.41;66.47
78149;BME280;67396;42.664;23.382;2023-11-19T08:25:33;95155.63;;;2.45;66.17
78149;BME280;67396;42.664;23.382;2023-11-19T08:28:01;95153.59;;;2.42;65.84
78149;BME280;67396;42.664;23.382;2023-11-19T08:30:28;95154.91;;;2.36;65.53
78149;BME280;67396;42.664;23.382;2023-11-19T08:32:54;95164.09;;;2.44;66.00
78149;BME280;67396;42.664;23.382;2023-11-19T08:35:22;95160.00;;;2.58;65.67
78149;BME280;67396;42.664;23.382;2023-11-19T08:37:49;95158.28;;;2.54;65.42
78149;BME280;67396;42.664;23.382;2023-11-19T08:40:14;95165.56;;;2.62;65.60
78149;BME280;67396;42.664;23.382;2023-11-19T08:42:40;95167.16;;;2.63;65.08
78149;BME280;67396;42.664;23.382;2023-11-19T08:45:08;95171.41;;;2.73;64.73
78149;BME280;67396;42.664;23.382;2023-11-19T08:47:40;95178.13;;;2.67;65.21
78149;BME280;67396;42.664;23.382;2023-11-19T08:50:06;95181.09;;;2.74;63.99
78149;BME280;67396;42.664;23.382;2023-11-19T08:52:32;95165.31;;;2.76;64.07
78149;BME280;67396;42.664;23.382;2023-11-19T08:54:57;95154.88;;;2.86;63.65
78149;BME280;67396;42.664;23.382;2023-11-19T08:57:23;95182.31;;;2.85;63.88
78149;BME280;67396;42.664;23.382;2023-11-19T08:59:50;95188.72;;;3.01;63.66
78149;BME280;67396;42.664;23.382;2023-11-19T09:02:15;95157.13;;;3.05;63.33
78149;BME280;67396;42.664;23.382;2023-11-19T09:04:41;95162.94;;;2.95;63.80
78149;BME280;67396;42.664;23.382;2023-11-19T09:07:07;95151.88;;;3.00;63.19
78149;BME280;67396;42.664;23.382;2023-11-19T09:09:35;95150.41;;;2.82;63.23
78149;BME280;67396;42.664;23.382;2023-11-19T09:12:01;95150.38;;;2.70;64.04
78149;BME280;67396;42.664;23.382;2023-11-19T09:14:27;95153.66;;;2.75;63.74
78149;BME280;67396;42.664;23.382;2023-11-19T09:16:55;95140.72;;;2.60;63.97
78149;BME280;67396;42.664;23.382;2023-11-19T09:19:21;95137.41;;;2.54;63.85
78149;BME280;67396;42.664;23.382;2023-11-19T09:21:46;95136.88;;;2.61;63.96
78149;BME280;67396;42.664;23.382;2023-11-19T09:24:13;95154.59;;;2.58;64.97
78149;BME280;67396;42.664;23.382;2023-11-19T09:26:38;95162.47;;;2.72;64.23
78149;BME280;67396;42.664;23.382;2023-11-19T09:29:07;95163.22;;;2.81;64.61
78149;BME280;67396;42.664;23.382;2023-11-19T09:31:34;95169.94;;;2.96;64.37
78149;BME280;67396;42.664;23.382;2023-11-19T09:34:00;95159.75;;;3.14;63.45
78149;BME280;67396;42.664;23.382;2023-11-19T09:36:25;95141.63;;;2.85;64.20
78149;BME280;67396;42.664;23.382;2023-11-19T09:38:51;95135.03;;;2.74;64.61
78149;BME280;67396;42.664;23.382;2023-11-19T09:41:17;95115.09;;;2.90;63.63
78149;BME280;67396;42.664;23.382;2023-11-19T09:43:45;95110.94;;;2.93;62.83
78149;BME280;67396;42.664;23.382;2023-11-19T09:46:12;95108.94;;;2.90;63.38
78149;BME280;67396;42.664;23.382;2023-11-19T09:48:39;95113.47;;;2.77;64.84
78149;BME280;67396;42.664;23.382;2023-11-19T09:51:09;95100.06;;;2.81;63.60
78149;BME280;67396;42.664;23.382;2023-11-19T09:53:36;95087.19;;;2.78;63.19
78149;BME280;67396;42.664;23.382;2023-11-19T09:56:04;95099.34;;;2.72;63.33
78149;BME280;67396;42.664;23.382;2023-11-19T09:58:32;95098.66;;;2.75;63.70
78149;BME280;67396;42.664;23.382;2023-11-19T10:01:01;95090.03;;;2.81;63.31
78149;BME280;67396;42.664;23.382;2023-11-19T10:03:34;95098.47;;;2.80;64.06
78149;BME280;67396;42.664;23.382;2023-11-19T10:06:07;95087.63;;;2.80;62.92
78149;BME280;67396;42.664;23.382;2023-11-19T10:08:34;95100.19;;;2.84;63.47
78149;BME280;67396;42.664;23.382;2023-11-19T10:10:59;95099.19;;;2.89;63.08
78149;BME280;67396;42.664;23.382;2023-11-19T10:13:31;95093.41;;;2.90;65.37
78149;BME280;67396;42.664;23.382;2023-11-19T10:16:07;95092.03;;;3.05;63.28
78149;BME280;67396;42.664;23.382;2023-11-19T10:18:34;95094.34;;;3.15;63.02
78149;BME280;67396;42.664;23.382;2023-11-19T10:21:04;95102.09;;;3.17;63.11
78149;BME280;67396;42.664;23.382;2023-11-19T10:23:31;95103.19;;;3.24;62.28
78149;BME280;67396;42.664;23.382;2023-11-19T10:26:04;95108.25;;;3.26;61.67
78149;BME280;67396;42.664;23.382;2023-11-19T10:28:41;95113.31;;;3.15;61.66
78149;BME280;67396;42.664;23.382;2023-11-19T10:31:09;95095.69;;;3.21;61.43
78149;BME280;67396;42.664;23.382;2023-11-19T10:33:35;95089.53;;;3.33;61.43
78149;BME280;67396;42.664;23.382;2023-11-19T10:36:00;95086.81;;;3.33;61.90
78149;BME280;67396;42.664;23.382;2023-11-19T10:38:26;95077.78;;;3.41;61.58
78149;BME280;67396;42.664;23.382;2023-11-19T10:40:56;95087.28;;;3.47;61.59
78149;BME280;67396;42.664;23.382;2023-11-19T10:43:22;95080.16;;;3.43;61.20
78149;BME280;67396;42.664;23.382;2023-11-19T10:45:49;95085.66;;;3.22;60.99
78149;BME280;67396;42.664;23.382;2023-11-19T10:48:17;95100.66;;;3.19;60.87
78149;BME280;67396;42.664;23.382;2023-11-19T10:50:49;95084.38;;;3.19;61.73
78149;BME280;67396;42.664;23.382;2023-11-19T10:53:18;95074.00;;;3.21;61.46
78149;BME280;67396;42.664;23.382;2023-11-19T10:55:47;95087.09;;;3.19;61.42
78149;BME280;67396;42.664;23.382;2023-11-19T10:58:15;95068.38;;;2.93;61.67
78149;BME280;67396;42.664;23.382;2023-11-19T11:00:45;95085.38;;;2.82;62.90
78149;BME280;67396;42.664;23.382;2023-11-19T11:03:21;95077.69;;;2.84;62.79
78149;BME280;67396;42.664;23.382;2023-11-19T11:05:49;95073.28;;;2.79;63.43
78149;BME280;67396;42.664;23.382;2023-11-19T11:08:15;95074.81;;;2.89;63.66
78149;BME280;67396;42.664;23.382;2023-11-19T11:10:46;95060.69;;;2.95;62.51
78149;BME280;67396;42.664;23.382;2023-11-19T11:13:17;95054.88;;;2.73;62.54
78149;BME280;67396;42.664;23.382;2023-11-19T11:15:44;95056.19;;;2.67;62.33
78149;BME280;67396;42.664;23.382;2023-11-19T11:18:12;95054.66;;;2.78;62.33
78149;BME280;67396;42.664;23.382;2023-11-19T11:20:38;95061.25;;;2.89;61.34
78149;BME280;67396;42.664;23.382;2023-11-19T11:29:20;95060.31;;;3.18;61.27
78149;BME280;67396;42.664;23.382;2023-11-19T11:32:16;95056.56;;;3.10;61.49
78149;BME280;67396;42.664;23.382;2023-11-19T11:40:14;95053.81;;;3.43;60.65
78149;BME280;67396;42.664;23.382;2023-11-19T11:42:41;95049.63;;;3.33;59.73
78149;BME280;67396;42.664;23.382;2023-11-19T11:45:08;95035.28;;;3.33;59.53
78149;BME280;67396;42.664;23.382;2023-11-19T11:55:37;95025.78;;;3.39;60.25
78149;BME280;67396;42.664;23.382;2023-11-19T11:58:29;95028.72;;;3.34;60.29
78149;BME280;67396;42.664;23.382;2023-11-19T12:00:58;95038.41;;;3.35;60.81
78149;BME280;67396;42.664;23.382;2023-11-19T12:03:28;95033.59;;;3.40;60.58
78149;BME280;67396;42.664;23.382;2023-11-19T12:05:56;95043.06;;;3.47;61.24
78149;BME280;67396;42.664;23.382;2023-11-19T12:08:27;95036.75;;;3.55;61.82
78149;BME280;67396;42.664;23.382;2023-11-19T12:11:00;95030.66;;;3.58;60.54
78149;BME280;67396;42.664;23.382;2023-11-19T12:13:55;95012.00;;;3.56;60.28
78149;BME280;67396;42.664;23.382;2023-11-19T12:16:23;95021.50;;;3.50;60.71
78149;BME280;67396;42.664;23.382;2023-11-19T12:18:49;95020.69;;;3.50;60.68
78149;BME280;67396;42.664;23.382;2023-11-19T12:21:31;95029.06;;;3.57;60.05
78149;BME280;67396;42.664;23.382;2023-11-19T12:23:58;95005.53;;;3.61;59.72
78149;BME280;67396;42.664;23.382;2023-11-19T12:26:37;95013.47;;;3.66;59.59
78149;BME280;67396;42.664;23.382;2023-11-19T12:29:03;95014.47;;;3.61;60.33
78149;BME280;67396;42.664;23.382;2023-11-19T12:31:33;95005.53;;;3.61;60.27
78149;BME280;67396;42.664;23.382;2023-11-19T12:34:04;95013.00;;;3.64;59.91
78149;BME280;67396;42.664;23.382;2023-11-19T12:36:30;94998.53;;;3.72;59.54
78149;BME280;67396;42.664;23.382;2023-11-19T12:38:56;94999.66;;;3.71;59.77
78149;BME280;67396;42.664;23.382;2023-11-19T12:41:22;94996.59;;;3.72;60.01
78149;BME280;67396;42.664;23.382;2023-11-19T12:43:48;94997.41;;;3.73;59.96
78149;BME280;67396;42.664;23.382;2023-11-19T12:48:46;94986.75;;;3.80;60.08
78149;BME280;67396;42.664;23.382;2023-11-19T12:51:15;94983.38;;;3.71;60.44
78149;BME280;67396;42.664;23.382;2023-11-19T12:53:51;94985.97;;;3.79;60.10
78149;BME280;67396;42.664;23.382;2023-11-19T12:56:20;94981.31;;;3.80;59.91
78149;BME280;67396;42.664;23.382;2023-11-19T12:58:47;94991.41;;;3.79;60.03
78149;BME280;67396;42.664;23.382;2023-11-19T13:01:19;94980.91;;;3.78;60.16
78149;BME280;67396;42.664;23.382;2023-11-19T13:03:45;94977.16;;;3.70;60.25
78149;BME280;67396;42.664;23.382;2023-11-19T13:06:14;94974.44;;;3.70;60.23
78149;BME280;67396;42.664;23.382;2023-11-19T13:08:51;94969.47;;;3.72;60.12
78149;BME280;67396;42.664;23.382;2023-11-19T13:11:34;94969.59;;;3.76;60.46
78149;BME280;67396;42.664;23.382;2023-11-19T13:14:03;94968.22;;;3.82;60.39
78149;BME280;67396;42.664;23.382;2023-11-19T13:16:37;94963.78;;;3.90;60.35
78149;BME280;67396;42.664;23.382;2023-11-19T13:19:02;94972.25;;;3.88;59.94
78149;BME280;67396;42.664;23.382;2023-11-19T13:21:29;94972.50;;;3.95;59.82
78149;BME280;67396;42.664;23.382;2023-11-19T13:23:58;94961.41;;;4.00;59.85
78149;BME280;67396;42.664;23.382;2023-11-19T13:26:24;94953.50;;;3.95;60.45
78149;BME280;67396;42.664;23.382;2023-11-19T13:28:49;94955.06;;;3.96;59.91